createdAt,value
2023-05-17T00:00:22.806Z,4.38
2023-05-17T00:00:53.201Z,4.38
2023-05-17T00:01:24.460Z,4.55
2023-05-17T00:01:55.496Z,4.55
2023-05-17T00:02:26.623Z,4.55
2023-05-17T00:02:57.371Z,4.55
2023-05-17T00:03:28.039Z,4.65
2023-05-17T00:03:59.115Z,4.65
2023-05-17T00:04:30.071Z,4.55
2023-05-17T00:05:01.931Z,4.55
2023-05-17T00:05:32.092Z,4.65
2023-05-17T00:06:03.278Z,4.65
2023-05-17T00:06:34.484Z,4.65
2023-05-17T00:07:05.110Z,4.65
2023-05-17T00:07:36.322Z,4.65
2023-05-17T00:08:07.228Z,4.81
2023-05-17T00:08:38.199Z,4.81
2023-05-17T00:09:09.101Z,4.81
2023-05-17T00:09:40.254Z,4.81
2023-05-17T00:10:11.723Z,4.81
2023-05-17T00:10:42.193Z,4.81
2023-05-17T00:11:13.083Z,4.81
2023-05-17T00:11:44.482Z,4.81
2023-05-17T00:12:15.565Z,4.81
2023-05-17T00:12:46.606Z,4.81
2023-05-17T00:13:17.458Z,4.81
2023-05-17T00:13:48.185Z,4.71
2023-05-17T00:14:19.303Z,4.71
2023-05-17T00:14:50.285Z,4.71
2023-05-17T00:15:22.023Z,4.71
2023-05-17T00:15:52.102Z,4.71
2023-05-17T00:16:23.043Z,4.71
2023-05-17T00:16:54.197Z,4.61
2023-05-17T00:17:25.287Z,4.61
2023-05-17T00:17:56.546Z,4.61
2023-05-17T00:18:27.291Z,4.61
2023-05-17T00:18:58.613Z,4.61
2023-05-17T00:19:29.069Z,4.61
2023-05-17T00:20:00.150Z,4.61
2023-05-17T00:20:31.590Z,4.61
2023-05-17T00:21:02.250Z,4.45
2023-05-17T00:21:33.396Z,4.45
2023-05-17T00:22:04.325Z,4.45
2023-05-17T00:22:35.049Z,4.45
2023-05-17T00:23:06.137Z,4.45
2023-05-17T00:23:37.149Z,4.55
2023-05-17T00:24:08.141Z,4.55
2023-05-17T00:24:39.521Z,4.55
2023-05-17T00:25:10.525Z,4.55
2023-05-17T00:25:41.206Z,4.55
2023-05-17T00:26:12.184Z,4.55
2023-05-17T00:26:43.249Z,4.55
2023-05-17T00:27:14.370Z,4.55
2023-05-17T00:27:45.805Z,4.55
2023-05-17T00:28:16.476Z,4.55
2023-05-17T00:28:48.568Z,4.65
2023-05-17T00:29:18.163Z,4.65
2023-05-17T00:29:50.314Z,4.81
2023-05-17T00:30:21.038Z,4.81
2023-05-17T00:30:51.527Z,4.81
2023-05-17T00:31:22.063Z,4.65
2023-05-17T00:31:53.241Z,4.65
2023-05-17T00:32:24.495Z,4.65
2023-05-17T00:32:55.304Z,4.65
2023-05-17T00:33:26.164Z,4.65
2023-05-17T00:33:57.388Z,4.65
2023-05-17T00:34:28.510Z,4.65
2023-05-17T00:34:59.385Z,4.65
2023-05-17T00:35:30.675Z,4.65
2023-05-17T00:36:01.066Z,4.65
2023-05-17T00:36:32.130Z,4.74
2023-05-17T00:37:03.246Z,4.74
2023-05-17T00:37:34.203Z,4.48
2023-05-17T00:38:05.341Z,4.48
2023-05-17T00:38:36.165Z,4.38
2023-05-17T00:39:07.246Z,4.38
2023-05-17T00:39:38.292Z,4.38
2023-05-17T00:40:09.433Z,4.38
2023-05-17T00:40:40.462Z,4.33
2023-05-17T00:41:11.324Z,4.17
2023-05-17T00:41:42.457Z,4.33
2023-05-17T00:42:13.903Z,4.33
2023-05-17T00:42:44.565Z,4.33
2023-05-17T00:43:15.224Z,4.43
2023-05-17T00:43:46.306Z,4.43
2023-05-17T00:44:17.193Z,4.43
2023-05-17T00:44:48.166Z,4.27
2023-05-17T00:45:19.782Z,4.27
2023-05-17T00:45:50.149Z,4.43
2023-05-17T00:46:21.601Z,4.27
2023-05-17T00:46:52.237Z,4.37
2023-05-17T00:47:23.577Z,4.37
2023-05-17T00:47:54.495Z,4.53
2023-05-17T00:48:25.389Z,4.63
2023-05-17T00:48:56.471Z,4.63
2023-05-17T00:49:27.230Z,4.63
2023-05-17T00:49:58.808Z,4.47
2023-05-17T00:50:30.026Z,4.63
2023-05-17T00:51:00.201Z,4.37
2023-05-17T00:51:31.620Z,4.37
2023-05-17T00:52:02.848Z,4.37
2023-05-17T00:52:33.622Z,4.53
2023-05-17T00:53:04.601Z,4.53
2023-05-17T00:53:35.629Z,4.53
2023-05-17T00:54:06.541Z,4.53
2023-05-17T00:54:37.670Z,4.37
2023-05-17T00:55:08.423Z,4.37
2023-05-17T00:55:39.701Z,4.20
2023-05-17T00:56:10.444Z,4.20
2023-05-17T00:56:41.277Z,4.20
2023-05-17T00:57:12.568Z,4.37
2023-05-17T00:57:43.385Z,4.47
2023-05-17T00:58:14.517Z,4.56
2023-05-17T00:58:45.422Z,4.56
2023-05-17T00:59:16.539Z,4.40
2023-05-17T00:59:47.629Z,4.40
2023-05-17T01:00:20.181Z,4.40
2023-05-17T01:00:49.558Z,4.40
2023-05-17T01:01:21.330Z,4.40
2023-05-17T01:01:51.621Z,4.24
2023-05-17T01:02:22.517Z,4.24
2023-05-17T01:02:53.360Z,4.40
2023-05-17T01:03:24.618Z,4.24
2023-05-17T01:03:55.678Z,4.08
2023-05-17T01:04:26.395Z,4.34
2023-05-17T01:04:57.403Z,4.34
2023-05-17T01:05:29.507Z,4.34
2023-05-17T01:05:59.200Z,4.34
2023-05-17T01:06:30.642Z,4.50
2023-05-17T01:07:01.271Z,4.50
2023-05-17T01:07:32.886Z,4.34
2023-05-17T01:08:03.282Z,4.34
2023-05-17T01:08:34.238Z,4.50
2023-05-17T01:09:05.660Z,4.50
2023-05-17T01:09:36.468Z,4.50
2023-05-17T01:10:07.528Z,4.50
2023-05-17T01:10:38.382Z,4.50
2023-05-17T01:11:09.554Z,4.50
2023-05-17T01:11:40.511Z,4.66
2023-05-17T01:12:11.495Z,4.66
2023-05-17T01:12:43.681Z,4.66
2023-05-17T01:13:13.705Z,4.66
2023-05-17T01:13:44.208Z,4.66
2023-05-17T01:14:15.524Z,4.66
2023-05-17T01:14:46.604Z,4.66
2023-05-17T01:15:18.342Z,4.56
2023-05-17T01:15:48.539Z,4.56
2023-05-17T01:16:19.675Z,4.56
2023-05-17T01:16:50.612Z,4.40
2023-05-17T01:17:21.723Z,4.40
2023-05-17T01:17:52.477Z,4.56
2023-05-17T01:18:23.315Z,4.40
2023-05-17T01:18:54.735Z,4.50
2023-05-17T01:19:25.652Z,4.50
2023-05-17T01:19:56.487Z,4.34
2023-05-17T01:20:28.155Z,4.24
2023-05-17T01:20:58.219Z,4.24
2023-05-17T01:21:29.285Z,4.40
2023-05-17T01:22:00.237Z,4.66
2023-05-17T01:22:31.289Z,4.66
2023-05-17T01:23:02.638Z,4.66
2023-05-17T01:23:33.663Z,4.76
2023-05-17T01:24:04.459Z,4.60
2023-05-17T01:24:36.120Z,4.50
2023-05-17T01:25:07.424Z,4.40
2023-05-17T01:25:37.577Z,4.40
2023-05-17T01:26:08.342Z,4.40
2023-05-17T01:26:39.829Z,4.40
2023-05-17T01:27:10.258Z,4.50
2023-05-17T01:27:41.326Z,4.50
2023-05-17T01:28:12.639Z,4.50
2023-05-17T01:28:43.561Z,4.50
2023-05-17T01:29:14.475Z,4.50
2023-05-17T01:29:45.603Z,4.34
2023-05-17T01:30:17.321Z,4.34
2023-05-17T01:30:47.413Z,4.34
2023-05-17T01:31:18.412Z,4.17
2023-05-17T01:31:50.554Z,4.17
2023-05-17T01:32:20.564Z,4.17
2023-05-17T01:32:51.966Z,4.50
2023-05-17T01:33:22.743Z,4.60
2023-05-17T01:33:53.422Z,4.60
2023-05-17T01:34:24.298Z,4.60
2023-05-17T01:34:55.400Z,4.60
2023-05-17T01:35:27.261Z,4.60
2023-05-17T01:35:58.047Z,4.60
2023-05-17T01:36:28.569Z,4.60
2023-05-17T01:36:59.389Z,4.43
2023-05-17T01:37:30.784Z,4.43
2023-05-17T01:38:01.602Z,4.43
2023-05-17T01:38:32.602Z,4.34
2023-05-17T01:39:03.337Z,4.34
2023-05-17T01:39:34.368Z,4.34
2023-05-17T01:40:05.790Z,4.34
2023-05-17T01:40:36.719Z,4.17
2023-05-17T01:41:07.516Z,4.17
2023-05-17T01:41:38.746Z,4.17
2023-05-17T01:42:09.765Z,4.17
2023-05-17T01:42:40.337Z,4.17
2023-05-17T01:43:11.364Z,4.17
2023-05-17T01:43:42.396Z,4.27
2023-05-17T01:44:13.486Z,4.27
2023-05-17T01:44:44.552Z,4.27
2023-05-17T01:45:16.088Z,4.10
2023-05-17T01:45:46.525Z,4.10
2023-05-17T01:46:17.328Z,4.10
2023-05-17T01:46:48.775Z,4.27
2023-05-17T01:47:20.083Z,4.27
2023-05-17T01:47:50.639Z,4.10
2023-05-17T01:48:21.601Z,3.92
2023-05-17T01:48:52.558Z,3.92
2023-05-17T01:49:23.513Z,4.10
2023-05-17T01:49:54.439Z,3.92
2023-05-17T01:50:25.908Z,4.02
2023-05-17T01:50:56.682Z,4.02
2023-05-17T01:51:27.599Z,4.20
2023-05-17T01:51:58.562Z,4.20
2023-05-17T01:52:30.089Z,4.20
2023-05-17T01:53:00.537Z,4.20
2023-05-17T01:53:31.782Z,4.37
2023-05-17T01:54:02.569Z,4.37
2023-05-17T01:54:33.601Z,4.37
2023-05-17T01:55:05.030Z,4.20
2023-05-17T01:55:35.335Z,4.20
2023-05-17T01:56:06.429Z,4.10
2023-05-17T01:56:37.482Z,4.10
2023-05-17T01:57:08.608Z,3.92
2023-05-17T01:57:40.134Z,3.92
2023-05-17T01:58:10.444Z,3.92
2023-05-17T01:58:41.522Z,4.20
2023-05-17T01:59:12.626Z,4.20
2023-05-17T01:59:43.768Z,4.20
2023-05-17T02:00:15.178Z,4.20
2023-05-17T02:00:45.809Z,4.10
2023-05-17T02:01:16.960Z,4.10
2023-05-17T02:01:47.737Z,4.27
2023-05-17T02:02:18.848Z,4.10
2023-05-17T02:02:49.947Z,4.10
2023-05-17T02:03:21.612Z,4.00
2023-05-17T02:03:51.515Z,4.00
2023-05-17T02:04:23.857Z,4.00
2023-05-17T02:04:53.519Z,4.00
2023-05-17T02:05:25.720Z,4.17
2023-05-17T02:05:55.401Z,4.17
2023-05-17T02:06:26.519Z,4.17
2023-05-17T02:06:57.659Z,4.00
2023-05-17T02:07:28.949Z,3.90
2023-05-17T02:07:59.845Z,3.90
2023-05-17T02:08:30.643Z,4.08
2023-05-17T02:09:01.754Z,3.73
2023-05-17T02:09:32.572Z,3.90
2023-05-17T02:10:03.729Z,3.90
2023-05-17T02:10:34.660Z,4.00
2023-05-17T02:11:05.528Z,4.00
2023-05-17T02:11:36.529Z,4.17
2023-05-17T02:12:07.767Z,4.17
2023-05-17T02:12:38.842Z,4.17
2023-05-17T02:13:09.800Z,4.17
2023-05-17T02:13:40.605Z,4.34
2023-05-17T02:14:11.682Z,4.34
2023-05-17T02:14:42.609Z,4.08
2023-05-17T02:15:14.107Z,4.08
2023-05-17T02:15:44.683Z,4.08
2023-05-17T02:16:15.882Z,3.98
2023-05-17T02:16:46.761Z,3.98
2023-05-17T02:17:17.768Z,3.98
2023-05-17T02:17:48.735Z,3.98
2023-05-17T02:18:20.030Z,3.98
2023-05-17T02:18:51.074Z,3.71
2023-05-17T02:19:21.779Z,3.71
2023-05-17T02:19:52.659Z,3.71
2023-05-17T02:20:24.348Z,3.71
2023-05-17T02:20:54.716Z,3.63
2023-05-17T02:21:26.005Z,3.63
2023-05-17T02:21:56.885Z,3.63
2023-05-17T02:22:28.045Z,3.63
2023-05-17T02:22:58.743Z,3.63
2023-05-17T02:23:29.883Z,3.80
2023-05-17T02:24:00.524Z,3.80
2023-05-17T02:24:31.521Z,3.90
2023-05-17T02:25:02.940Z,4.08
2023-05-17T02:25:33.483Z,4.08
2023-05-17T02:26:04.889Z,4.08
2023-05-17T02:26:35.844Z,4.08
2023-05-17T02:27:06.575Z,4.08
2023-05-17T02:27:38.384Z,3.80
2023-05-17T02:28:08.639Z,3.98
2023-05-17T02:28:39.547Z,4.14
2023-05-17T02:29:11.054Z,4.14
2023-05-17T02:29:41.964Z,4.14
2023-05-17T02:30:14.097Z,3.98
2023-05-17T02:30:43.621Z,3.80
2023-05-17T02:31:14.543Z,3.80
2023-05-17T02:31:45.679Z,3.98
2023-05-17T02:32:17.046Z,3.98
2023-05-17T02:32:47.626Z,3.98
2023-05-17T02:33:19.103Z,3.98
2023-05-17T02:33:49.954Z,3.98
2023-05-17T02:34:21.112Z,3.98
2023-05-17T02:34:52.560Z,3.98
2023-05-17T02:35:23.118Z,3.98
2023-05-17T02:35:54.559Z,3.80
2023-05-17T02:36:24.590Z,3.80
2023-05-17T02:36:56.572Z,4.08
2023-05-17T02:37:26.621Z,4.08
2023-05-17T02:37:57.605Z,4.08
2023-05-17T02:38:28.629Z,3.90
2023-05-17T02:38:59.658Z,3.90
2023-05-17T02:39:31.062Z,3.90
2023-05-17T02:40:01.728Z,3.90
2023-05-17T02:40:32.636Z,4.08
2023-05-17T02:41:03.786Z,4.08
2023-05-17T02:41:34.771Z,3.90
2023-05-17T02:42:05.847Z,3.90
2023-05-17T02:42:36.987Z,3.90
2023-05-17T02:43:07.911Z,3.63
2023-05-17T02:43:38.915Z,3.80
2023-05-17T02:44:09.640Z,3.80
2023-05-17T02:44:40.604Z,3.98
2023-05-17T02:45:12.386Z,3.98
2023-05-17T02:45:42.602Z,3.98
2023-05-17T02:46:13.568Z,3.98
2023-05-17T02:46:44.635Z,3.98
2023-05-17T02:47:15.871Z,3.98
2023-05-17T02:47:46.726Z,3.98
2023-05-17T02:48:17.619Z,3.80
2023-05-17T02:48:48.701Z,3.80
2023-05-17T02:49:19.743Z,3.80
2023-05-17T02:49:50.758Z,3.98
2023-05-17T02:50:22.181Z,3.98
2023-05-17T02:50:53.114Z,3.98
2023-05-17T02:51:23.890Z,3.98
2023-05-17T02:51:55.000Z,3.80
2023-05-17T02:52:25.730Z,3.80
2023-05-17T02:52:56.694Z,3.80
2023-05-17T02:53:27.666Z,3.98
2023-05-17T02:53:58.641Z,3.98
2023-05-17T02:54:29.682Z,3.98
2023-05-17T02:55:01.083Z,3.98
2023-05-17T02:55:31.654Z,4.14
2023-05-17T02:56:02.920Z,4.14
2023-05-17T02:56:34.014Z,4.14
2023-05-17T02:57:05.121Z,4.14
2023-05-17T02:57:36.187Z,4.14
2023-05-17T02:58:06.765Z,4.14
2023-05-17T02:58:37.800Z,4.14
2023-05-17T02:59:08.887Z,4.04
2023-05-17T02:59:39.925Z,3.88
2023-05-17T03:00:11.713Z,3.88
2023-05-17T03:00:41.895Z,4.04
2023-05-17T03:01:12.650Z,4.04
2023-05-17T03:01:43.641Z,4.04
2023-05-17T03:02:14.850Z,4.04
2023-05-17T03:02:45.831Z,4.20
2023-05-17T03:03:17.020Z,4.04
2023-05-17T03:03:47.814Z,4.04
2023-05-17T03:04:18.727Z,4.11
2023-05-17T03:04:49.704Z,4.11
2023-05-17T03:05:21.123Z,4.11
2023-05-17T03:05:51.644Z,4.11
2023-05-17T03:06:23.470Z,4.11
2023-05-17T03:06:53.839Z,4.11
2023-05-17T03:07:25.964Z,4.27
2023-05-17T03:07:55.942Z,4.11
2023-05-17T03:08:27.050Z,4.11
2023-05-17T03:08:58.164Z,4.17
2023-05-17T03:09:28.683Z,4.01
2023-05-17T03:10:00.145Z,4.01
2023-05-17T03:10:31.725Z,4.17
2023-05-17T03:11:02.106Z,4.17
2023-05-17T03:11:33.182Z,4.01
2023-05-17T03:12:04.176Z,4.17
2023-05-17T03:12:35.941Z,4.17
2023-05-17T03:13:06.172Z,3.91
2023-05-17T03:13:37.238Z,3.91
2023-05-17T03:14:08.218Z,3.75
2023-05-17T03:14:39.179Z,3.75
2023-05-17T03:15:10.655Z,3.75
2023-05-17T03:15:40.645Z,3.75
2023-05-17T03:16:11.759Z,3.85
2023-05-17T03:16:42.898Z,3.85
2023-05-17T03:17:13.986Z,4.01
2023-05-17T03:17:44.811Z,4.01
2023-05-17T03:18:16.166Z,4.01
2023-05-17T03:18:47.421Z,3.85
2023-05-17T03:19:17.843Z,3.85
2023-05-17T03:19:49.105Z,3.85
2023-05-17T03:20:20.345Z,3.85
2023-05-17T03:20:50.630Z,3.85
2023-05-17T03:21:21.647Z,3.85
2023-05-17T03:21:52.739Z,3.85
2023-05-17T03:22:24.002Z,3.85
2023-05-17T03:22:54.837Z,4.01
2023-05-17T03:23:25.796Z,4.01
2023-05-17T03:23:56.841Z,4.01
2023-05-17T03:24:27.872Z,4.01
2023-05-17T03:24:58.780Z,4.17
2023-05-17T03:25:31.135Z,4.07
2023-05-17T03:26:00.705Z,4.07
2023-05-17T03:26:32.051Z,3.91
2023-05-17T03:27:02.882Z,3.91
2023-05-17T03:27:34.133Z,3.81
2023-05-17T03:28:04.928Z,3.81
2023-05-17T03:28:36.562Z,3.81
2023-05-17T03:29:06.742Z,3.81
2023-05-17T03:29:37.700Z,3.81
2023-05-17T03:30:09.711Z,3.97
2023-05-17T03:30:40.251Z,4.07
2023-05-17T03:31:10.811Z,4.07
2023-05-17T03:31:41.779Z,3.81
2023-05-17T03:32:12.781Z,3.97
2023-05-17T03:32:43.861Z,3.97
2023-05-17T03:33:15.103Z,3.97
2023-05-17T03:33:46.566Z,3.97
2023-05-17T03:34:17.046Z,3.81
2023-05-17T03:34:47.723Z,3.81
2023-05-17T03:35:19.242Z,3.65
2023-05-17T03:35:49.738Z,3.65
2023-05-17T03:36:20.752Z,3.65
2023-05-17T03:36:51.885Z,3.81
2023-05-17T03:37:22.797Z,3.91
2023-05-17T03:37:54.962Z,3.91
2023-05-17T03:38:24.965Z,3.75
2023-05-17T03:38:56.496Z,3.91
2023-05-17T03:39:27.059Z,3.91
2023-05-17T03:39:58.603Z,3.75
2023-05-17T03:40:29.045Z,3.75
2023-05-17T03:40:59.806Z,3.75
2023-05-17T03:41:30.822Z,3.59
2023-05-17T03:42:01.819Z,3.59
2023-05-17T03:42:32.793Z,3.59
2023-05-17T03:43:03.894Z,3.68
2023-05-17T03:43:35.287Z,3.68
2023-05-17T03:44:06.131Z,3.85
2023-05-17T03:44:37.183Z,3.85
2023-05-17T03:45:08.749Z,3.85
2023-05-17T03:45:38.860Z,3.68
2023-05-17T03:46:10.109Z,3.68
2023-05-17T03:46:41.186Z,3.68
2023-05-17T03:47:12.168Z,3.51
2023-05-17T03:47:43.745Z,3.51
2023-05-17T03:48:14.219Z,3.51
2023-05-17T03:48:45.213Z,3.68
2023-05-17T03:49:16.203Z,3.78
2023-05-17T03:49:47.306Z,3.61
2023-05-17T03:50:18.365Z,3.78
2023-05-17T03:50:48.959Z,3.78
2023-05-17T03:51:20.106Z,3.78
2023-05-17T03:51:51.185Z,3.78
2023-05-17T03:52:22.437Z,3.78
2023-05-17T03:52:53.279Z,3.51
2023-05-17T03:53:23.804Z,3.51
2023-05-17T03:53:54.919Z,3.51
2023-05-17T03:54:25.853Z,3.51
2023-05-17T03:54:56.842Z,3.61
2023-05-17T03:55:28.403Z,3.61
2023-05-17T03:55:58.930Z,3.61
2023-05-17T03:56:30.058Z,3.61
2023-05-17T03:57:00.840Z,3.78
2023-05-17T03:57:32.463Z,3.88
2023-05-17T03:58:03.280Z,4.04
2023-05-17T03:58:33.864Z,3.71
2023-05-17T03:59:05.286Z,3.71
2023-05-17T03:59:36.121Z,3.88
2023-05-17T04:00:07.608Z,3.71
2023-05-17T04:00:38.177Z,3.61
2023-05-17T04:01:08.854Z,3.43
2023-05-17T04:01:39.923Z,3.43
2023-05-17T04:02:11.327Z,3.61
2023-05-17T04:02:42.192Z,3.61
2023-05-17T04:03:13.079Z,3.53
2023-05-17T04:03:44.430Z,3.71
2023-05-17T04:04:15.212Z,3.71
2023-05-17T04:04:46.298Z,3.71
2023-05-17T04:05:17.636Z,3.71
2023-05-17T04:05:47.871Z,3.53
2023-05-17T04:06:18.898Z,3.37
2023-05-17T04:06:49.966Z,3.37
2023-05-17T04:07:21.227Z,3.37
2023-05-17T04:07:52.463Z,3.63
2023-05-17T04:08:23.002Z,3.63
2023-05-17T04:08:54.120Z,3.80
2023-05-17T04:09:26.383Z,3.80
2023-05-17T04:09:55.906Z,3.63
2023-05-17T04:10:28.194Z,3.63
2023-05-17T04:10:58.429Z,3.37
2023-05-17T04:11:28.923Z,3.53
2023-05-17T04:12:00.057Z,3.53
2023-05-17T04:12:31.018Z,3.53
2023-05-17T04:13:02.389Z,3.71
2023-05-17T04:13:33.003Z,3.80
2023-05-17T04:14:03.866Z,3.98
2023-05-17T04:14:35.450Z,3.98
2023-05-17T04:15:06.421Z,3.98
2023-05-17T04:15:37.250Z,3.80
2023-05-17T04:16:08.021Z,3.88
2023-05-17T04:16:39.244Z,3.88
2023-05-17T04:17:10.193Z,3.71
2023-05-17T04:17:41.429Z,3.71
2023-05-17T04:18:12.214Z,3.43
2023-05-17T04:18:43.334Z,3.43
2023-05-17T04:19:14.338Z,3.43
2023-05-17T04:19:45.184Z,3.43
2023-05-17T04:20:16.430Z,3.61
2023-05-17T04:20:46.943Z,3.61
2023-05-17T04:21:18.031Z,3.71
2023-05-17T04:21:49.228Z,3.71
2023-05-17T04:22:20.650Z,3.53
2023-05-17T04:22:51.128Z,3.37
2023-05-17T04:23:22.008Z,3.37
2023-05-17T04:23:53.303Z,3.20
2023-05-17T04:24:24.183Z,3.02
2023-05-17T04:24:55.018Z,3.37
2023-05-17T04:25:27.146Z,3.47
2023-05-17T04:25:57.025Z,3.56
2023-05-17T04:26:28.424Z,3.56
2023-05-17T04:26:59.814Z,3.22
2023-05-17T04:27:30.319Z,3.39
2023-05-17T04:28:01.237Z,3.56
2023-05-17T04:28:32.182Z,3.39
2023-05-17T04:29:03.152Z,3.56
2023-05-17T04:29:34.349Z,3.56
2023-05-17T04:30:05.708Z,3.73
2023-05-17T04:30:36.100Z,3.73
2023-05-17T04:31:07.354Z,3.56
2023-05-17T04:31:38.252Z,3.56
2023-05-17T04:32:10.071Z,3.56
2023-05-17T04:32:40.939Z,3.47
2023-05-17T04:33:13.476Z,3.47
2023-05-17T04:33:42.696Z,3.47
2023-05-17T04:34:15.770Z,3.47
2023-05-17T04:34:45.786Z,3.29
2023-05-17T04:35:17.248Z,3.47
2023-05-17T04:35:47.512Z,3.29
2023-05-17T04:36:17.961Z,3.39
2023-05-17T04:36:49.265Z,3.39
2023-05-17T04:37:21.509Z,3.39
2023-05-17T04:37:51.862Z,3.56
2023-05-17T04:38:22.323Z,3.56
2023-05-17T04:38:52.154Z,3.39
2023-05-17T04:39:23.861Z,3.39
2023-05-17T04:39:54.912Z,3.39
2023-05-17T04:40:26.941Z,3.39
2023-05-17T04:40:58.800Z,3.39
2023-05-17T04:41:27.874Z,3.39
2023-05-17T04:42:01.918Z,3.39
2023-05-17T04:42:30.177Z,3.39
2023-05-17T04:43:01.069Z,3.39
2023-05-17T04:43:33.417Z,3.39
2023-05-17T04:44:06.286Z,3.39
2023-05-17T04:44:34.396Z,3.49
2023-05-17T04:45:06.386Z,3.49
2023-05-17T04:45:35.746Z,3.49
2023-05-17T04:46:06.435Z,3.49
2023-05-17T04:46:38.141Z,3.66
2023-05-17T04:47:08.821Z,3.66
2023-05-17T04:47:40.503Z,3.66
2023-05-17T04:48:11.981Z,3.66
2023-05-17T04:48:44.969Z,3.49
2023-05-17T04:49:13.681Z,3.31
2023-05-17T04:49:44.704Z,3.49
2023-05-17T04:50:16.222Z,3.49
2023-05-17T04:50:45.835Z,3.49
2023-05-17T04:51:18.735Z,3.49
2023-05-17T04:51:49.089Z,3.31
2023-05-17T04:52:19.039Z,3.31
2023-05-17T04:52:50.348Z,3.31
2023-05-17T04:53:20.446Z,3.49
2023-05-17T04:53:51.886Z,3.49
2023-05-17T04:54:24.297Z,3.49
2023-05-17T04:54:54.043Z,3.76
2023-05-17T04:55:26.364Z,3.59
2023-05-17T04:55:56.172Z,3.59
2023-05-17T04:56:26.929Z,3.41
2023-05-17T04:56:58.823Z,3.41
2023-05-17T04:57:29.182Z,3.41
2023-05-17T04:57:59.346Z,3.59
2023-05-17T04:58:32.288Z,3.41
2023-05-17T04:59:02.124Z,3.41
2023-05-17T04:59:39.398Z,3.41
2023-05-17T05:00:04.350Z,3.41
2023-05-17T05:00:34.723Z,3.59
2023-05-17T05:01:06.059Z,3.59
2023-05-17T05:01:37.771Z,3.59
2023-05-17T05:02:08.204Z,3.59
2023-05-17T05:02:39.356Z,3.59
2023-05-17T05:03:09.759Z,3.59
2023-05-17T05:03:41.524Z,3.59
2023-05-17T05:04:44.661Z,3.68
2023-05-17T05:05:15.626Z,3.86
2023-05-17T05:05:46.357Z,3.68
2023-05-17T05:06:16.468Z,3.68
2023-05-17T05:06:47.938Z,3.68
2023-05-17T05:07:18.238Z,3.51
2023-05-17T05:07:49.824Z,3.51
2023-05-17T05:08:21.270Z,3.51
2023-05-17T05:08:52.316Z,3.68
2023-05-17T05:09:22.919Z,3.68
2023-05-17T05:09:56.076Z,3.61
2023-05-17T05:10:25.598Z,3.78
2023-05-17T05:10:55.201Z,3.78
2023-05-17T05:11:26.084Z,3.61
2023-05-17T05:12:04.303Z,3.61
2023-05-17T05:12:30.220Z,3.61
2023-05-17T05:12:59.240Z,3.61
2023-05-17T05:13:32.400Z,3.61
2023-05-17T05:14:01.204Z,3.61
2023-05-17T05:14:33.669Z,3.61
2023-05-17T05:15:04.035Z,3.61
2023-05-17T05:15:35.389Z,3.78
2023-05-17T05:16:05.436Z,3.88
2023-05-17T05:16:37.356Z,3.88
2023-05-17T05:17:08.267Z,3.70
2023-05-17T05:17:37.555Z,3.80
2023-05-17T05:18:08.279Z,3.80
2023-05-17T05:18:39.545Z,3.80
2023-05-17T05:19:10.526Z,3.97
2023-05-17T05:19:41.176Z,4.07
2023-05-17T05:20:12.945Z,3.90
2023-05-17T05:20:43.214Z,3.99
2023-05-17T05:21:14.786Z,3.82
2023-05-17T05:21:45.265Z,3.82
2023-05-17T05:22:16.718Z,3.99
2023-05-17T05:22:47.364Z,3.82
2023-05-17T05:23:18.409Z,3.82
2023-05-17T05:23:49.537Z,3.82
2023-05-17T05:24:20.558Z,3.82
2023-05-17T05:24:51.467Z,3.72
2023-05-17T05:25:23.007Z,3.72
2023-05-17T05:25:53.242Z,3.72
2023-05-17T05:26:24.247Z,3.99
2023-05-17T05:26:55.263Z,3.99
2023-05-17T05:27:26.484Z,4.17
2023-05-17T05:27:57.152Z,4.17
2023-05-17T05:28:28.259Z,4.17
2023-05-17T05:28:59.166Z,3.99
2023-05-17T05:29:30.212Z,3.99
2023-05-17T05:30:01.806Z,3.90
2023-05-17T05:30:32.320Z,3.72
2023-05-17T05:31:03.441Z,3.72
2023-05-17T05:31:35.173Z,3.90
2023-05-17T05:32:05.445Z,3.72
2023-05-17T05:32:36.572Z,3.72
2023-05-17T05:33:07.229Z,3.72
2023-05-17T05:33:38.315Z,3.82
2023-05-17T05:34:09.576Z,3.82
2023-05-17T05:34:40.736Z,3.82
2023-05-17T05:35:11.677Z,3.82
2023-05-17T05:35:42.187Z,3.82
2023-05-17T05:36:13.276Z,3.82
2023-05-17T05:36:44.300Z,3.82
2023-05-17T05:37:17.261Z,4.09
2023-05-17T05:37:46.838Z,4.09
2023-05-17T05:38:17.622Z,4.09
2023-05-17T05:38:48.266Z,4.09
2023-05-17T05:39:19.600Z,4.09
2023-05-17T05:39:50.518Z,3.82
2023-05-17T05:40:21.554Z,3.82
2023-05-17T05:40:52.246Z,3.72
2023-05-17T05:41:23.740Z,3.72
2023-05-17T05:41:54.268Z,3.90
2023-05-17T05:42:25.784Z,3.90
2023-05-17T05:42:56.282Z,3.90
2023-05-17T05:43:27.327Z,3.90
2023-05-17T05:43:59.798Z,3.90
2023-05-17T05:44:29.469Z,3.90
2023-05-17T05:45:01.331Z,3.90
2023-05-17T05:45:31.600Z,3.72
2023-05-17T05:46:02.658Z,3.90
2023-05-17T05:46:33.667Z,3.90
2023-05-17T05:47:04.639Z,3.72
2023-05-17T05:47:35.324Z,3.72
2023-05-17T05:48:06.693Z,3.72
2023-05-17T05:48:37.552Z,3.72
2023-05-17T05:49:08.639Z,3.72
2023-05-17T05:49:39.546Z,3.72
2023-05-17T05:50:10.581Z,3.90
2023-05-17T05:50:41.201Z,3.99
2023-05-17T05:51:12.466Z,4.17
2023-05-17T05:51:43.428Z,3.99
2023-05-17T05:52:14.685Z,3.82
2023-05-17T05:52:45.569Z,3.82
2023-05-17T05:53:19.553Z,3.82
2023-05-17T05:53:47.578Z,3.99
2023-05-17T05:54:18.537Z,3.99
2023-05-17T05:54:49.357Z,3.82
2023-05-17T05:55:21.160Z,3.82
2023-05-17T05:55:51.327Z,3.82
2023-05-17T05:56:22.398Z,3.82
2023-05-17T05:56:53.667Z,3.82
2023-05-17T05:57:24.797Z,3.82
2023-05-17T05:57:55.241Z,3.63
2023-05-17T05:58:26.275Z,3.63
2023-05-17T05:58:57.521Z,3.82
2023-05-17T05:59:28.255Z,3.82
2023-05-17T05:59:59.420Z,3.82
2023-05-17T06:00:31.706Z,3.92
2023-05-17T06:01:02.094Z,3.92
2023-05-17T06:01:32.644Z,3.92
2023-05-17T06:02:03.590Z,3.92
2023-05-17T06:02:34.578Z,3.92
2023-05-17T06:03:05.688Z,4.09
2023-05-17T06:03:36.286Z,3.92
2023-05-17T06:04:07.564Z,4.09
2023-05-17T06:04:45.178Z,3.92
2023-05-17T06:05:09.522Z,3.92
2023-05-17T06:05:40.680Z,4.01
2023-05-17T06:06:11.494Z,4.01
2023-05-17T06:06:42.856Z,4.01
2023-05-17T06:07:13.449Z,4.01
2023-05-17T06:07:44.531Z,4.01
2023-05-17T06:08:15.809Z,4.19
2023-05-17T06:08:46.893Z,4.19
2023-05-17T06:09:17.679Z,4.01
2023-05-17T06:09:48.606Z,4.09
2023-05-17T06:10:19.875Z,4.09
2023-05-17T06:10:50.657Z,4.09
2023-05-17T06:11:21.446Z,4.09
2023-05-17T06:11:52.403Z,4.09
2023-05-17T06:12:23.350Z,4.01
2023-05-17T06:12:54.411Z,4.19
2023-05-17T06:13:25.502Z,4.19
2023-05-17T06:13:56.526Z,4.01
2023-05-17T06:14:27.889Z,4.01
2023-05-17T06:14:58.941Z,4.01
2023-05-17T06:15:31.695Z,4.01
2023-05-17T06:16:00.813Z,4.01
2023-05-17T06:16:32.833Z,4.19
2023-05-17T06:17:02.856Z,4.19
2023-05-17T06:17:33.522Z,4.19
2023-05-17T06:18:04.523Z,4.36
2023-05-17T06:18:35.506Z,4.29
2023-05-17T06:19:07.034Z,4.11
2023-05-17T06:19:37.766Z,4.38
2023-05-17T06:20:09.259Z,4.38
2023-05-17T06:20:39.489Z,4.21
2023-05-17T06:21:10.630Z,4.11
2023-05-17T06:21:41.611Z,4.11
2023-05-17T06:22:12.649Z,3.92
2023-05-17T06:22:43.558Z,4.11
2023-05-17T06:23:14.808Z,3.92
2023-05-17T06:23:45.773Z,4.11
2023-05-17T06:24:17.171Z,4.11
2023-05-17T06:24:47.680Z,4.21
2023-05-17T06:25:19.462Z,4.21
2023-05-17T06:25:49.824Z,4.21
2023-05-17T06:26:21.104Z,4.21
2023-05-17T06:26:51.764Z,4.02
2023-05-17T06:27:22.886Z,4.21
2023-05-17T06:27:53.542Z,4.21
2023-05-17T06:28:24.448Z,4.21
2023-05-17T06:28:55.483Z,4.38
2023-05-17T06:29:26.570Z,4.21
2023-05-17T06:29:57.550Z,4.21
2023-05-17T06:30:29.237Z,4.21
2023-05-17T06:30:59.843Z,4.21
2023-05-17T06:31:30.895Z,4.21
2023-05-17T06:32:01.568Z,4.30
2023-05-17T06:32:32.880Z,4.30
2023-05-17T06:33:03.690Z,4.30
2023-05-17T06:33:34.840Z,4.30
2023-05-17T06:34:05.710Z,4.12
2023-05-17T06:34:36.526Z,4.30
2023-05-17T06:35:08.082Z,4.30
2023-05-17T06:35:54.860Z,4.30
2023-05-17T06:36:09.854Z,4.12
2023-05-17T06:36:41.023Z,4.12
2023-05-17T06:37:11.564Z,4.12
2023-05-17T06:37:42.611Z,4.12
2023-05-17T06:38:13.597Z,4.30
2023-05-17T06:38:44.630Z,4.12
2023-05-17T06:39:15.880Z,4.12
2023-05-17T06:39:55.957Z,4.12
2023-05-17T06:40:18.186Z,3.94
2023-05-17T06:40:48.756Z,3.94
2023-05-17T06:41:19.876Z,4.12
2023-05-17T06:41:51.960Z,4.12
2023-05-17T06:42:22.042Z,4.12
2023-05-17T06:42:52.528Z,4.21
2023-05-17T06:43:23.521Z,4.13
2023-05-17T06:43:54.544Z,4.31
2023-05-17T06:44:25.892Z,4.31
2023-05-17T06:44:56.580Z,4.31
2023-05-17T06:45:28.519Z,4.60
2023-05-17T06:45:58.948Z,4.60
2023-05-17T06:46:29.635Z,4.60
2023-05-17T06:47:02.043Z,4.41
2023-05-17T06:47:32.159Z,4.41
2023-05-17T06:48:04.450Z,4.23
2023-05-17T06:48:33.895Z,4.31
2023-05-17T06:49:05.214Z,4.13
2023-05-17T06:49:35.675Z,4.13
2023-05-17T06:50:07.039Z,4.13
2023-05-17T06:50:38.097Z,4.13
2023-05-17T06:51:08.680Z,4.13
2023-05-17T06:51:39.698Z,4.13
2023-05-17T06:52:11.039Z,4.31
2023-05-17T06:52:41.872Z,4.13
2023-05-17T06:53:12.898Z,3.95